Map

Track Data

SID SEASON NUMBER BASIN SUBBASIN NAME ISO_TIME NATURE LAT LON WMO_WIND WMO_PRES WMO_AGENCY TRACK_TYPE DIST2LAND LANDFALL IFLAG USA_AGENCY USA_ATCF_ID USA_LAT USA_LON USA_RECORD USA_STATUS USA_WIND USA_PRES USA_SSHS USA_R34_NE USA_R34_SE USA_R34_SW USA_R34_NW USA_R50_NE USA_R50_SE USA_R50_SW USA_R50_NW USA_R64_NE USA_R64_SE USA_R64_SW USA_R64_NW USA_POCI USA_ROCI USA_RMW USA_EYE TOKYO_LAT TOKYO_LON TOKYO_GRADE TOKYO_WIND TOKYO_PRES TOKYO_R50_DIR TOKYO_R50_LONG TOKYO_R50_SHORT TOKYO_R30_DIR TOKYO_R30_LONG TOKYO_R30_SHORT TOKYO_LAND CMA_LAT CMA_LON CMA_CAT CMA_WIND CMA_PRES HKO_LAT HKO_LON HKO_CAT HKO_WIND HKO_PRES NEWDELHI_LAT NEWDELHI_LON NEWDELHI_GRADE NEWDELHI_WIND NEWDELHI_PRES NEWDELHI_CI NEWDELHI_DP NEWDELHI_POCI REUNION_LAT REUNION_LON REUNION_TYPE REUNION_WIND REUNION_PRES REUNION_TNUM REUNION_CI REUNION_RMW REUNION_R34_NE REUNION_R34_SE REUNION_R34_SW REUNION_R34_NW REUNION_R50_NE REUNION_R50_SE REUNION_R50_SW REUNION_R50_NW REUNION_R64_NE REUNION_R64_SE REUNION_R64_SW REUNION_R64_NW BOM_LAT BOM_LON BOM_TYPE BOM_WIND BOM_PRES BOM_TNUM BOM_CI BOM_RMW BOM_R34_NE BOM_R34_SE BOM_R34_SW BOM_R34_NW BOM_R50_NE BOM_R50_SE BOM_R50_SW BOM_R50_NW BOM_R64_NE BOM_R64_SE BOM_R64_SW BOM_R64_NW BOM_ROCI BOM_POCI BOM_EYE BOM_POS_METHOD BOM_PRES_METHOD NADI_LAT NADI_LON NADI_CAT NADI_WIND NADI_PRES WELLINGTON_LAT WELLINGTON_LON WELLINGTON_WIND WELLINGTON_PRES DS824_LAT DS824_LON DS824_STAGE DS824_WIND DS824_PRES TD9636_LAT TD9636_LON TD9636_STAGE TD9636_WIND TD9636_PRES TD9635_LAT TD9635_LON TD9635_WIND TD9635_PRES TD9635_ROCI NEUMANN_LAT NEUMANN_LON NEUMANN_CLASS NEUMANN_WIND NEUMANN_PRES MLC_LAT MLC_LON MLC_CLASS MLC_WIND MLC_PRES USA_GUST BOM_GUST BOM_GUST_PER REUNION_GUST REUNION_GUST_PER USA_SEAHGT USA_SEARAD_NE USA_SEARAD_SE USA_SEARAD_SW USA_SEARAD_NW STORM_SPEED STORM_DIR
1913021S17052 1913 9 SI MM NOT_NAMED 1913-01-21 06:00:00 NR -16.9000 52.3000 reunion main 245 245 _____O________ -1 -16.9000 52.3000 99 9.90000 1 214
1913021S17052 1913 9 SI MM NOT_NAMED 1913-01-21 09:00:00 NR -16.9327 52.2985 main 245 245 _____P________ -1 -16.9327 52.2985 99 1 0
1913021S17052 1913 9 SI MM NOT_NAMED 1913-01-21 12:00:00 NR -16.9717 52.2960 main 250 250 _____P________ -1 -16.9717 52.2960 99 1 0
1913021S17052 1913 9 SI MM NOT_NAMED 1913-01-21 15:00:00 NR -17.0236 52.2914 main 250 250 _____P________ -1 -17.0236 52.2914 99 1 190
1913021S17052 1913 9 SI MM NOT_NAMED 1913-01-21 18:00:00 NR -17.0948 52.2836 main 255 255 _____P________ -1 -17.0948 52.2836 99 2 0
1913021S17052 1913 9 SI MM NOT_NAMED 1913-01-21 21:00:00 NR -17.1916 52.2717 main 261 261 _____P________ -1 -17.1916 52.2717 99 2 187
1913021S17052 1913 9 SI MM NOT_NAMED 1913-01-22 00:00:00 NR -17.3204 52.2545 main 266 263 _____P________ -1 -17.3204 52.2545 99 3 187
1913021S17052 1913 9 SI MM NOT_NAMED 1913-01-22 03:00:00 NR -17.4878 52.2309 main 266 266 _____P________ -1 -17.4878 52.2309 99 4 188
1913021S17052 1913 9 SI MM NOT_NAMED 1913-01-22 06:00:00 NR -17.7000 52.2000 reunion main 274 274 _____O________ -1 -17.7000 52.2000 99 9.90000 5 188
1913021S17052 1913 9 SI MM NOT_NAMED 1913-01-22 09:00:00 NR -17.9616 52.1614 main 287 277 _____P________ -1 -17.9616 52.1614 99 6 188
1913021S17052 1913 9 SI MM NOT_NAMED 1913-01-22 12:00:00 NR -18.2694 52.1184 main 283 283 _____P________ -1 -18.2694 52.1184 99 7 186
1913021S17052 1913 9 SI MM NOT_NAMED 1913-01-22 15:00:00 NR -18.6183 52.0751 main 288 285 _____P________ -1 -18.6183 52.0751 99 7 186
1913021S17052 1913 9 SI MM NOT_NAMED 1913-01-22 18:00:00 NR -19.0030 52.0355 main 288 288 _____P________ -1 -19.0030 52.0355 99 8 185
1913021S17052 1913 9 SI MM NOT_NAMED 1913-01-22 21:00:00 NR -19.4187 52.0040 main 304 304 _____P________ -1 -19.4187 52.0040 99 9 182
1913021S17052 1913 9 SI MM NOT_NAMED 1913-01-23 00:00:00 NR -19.8601 51.9847 main 320 320 _____P________ -1 -19.8601 51.9847 99 9 182
1913021S17052 1913 9 SI MM NOT_NAMED 1913-01-23 03:00:00 NR -20.3222 51.9819 main 335 333 _____P________ -1 -20.3222 51.9819 99 9 0
1913021S17052 1913 9 SI MM NOT_NAMED 1913-01-23 06:00:00 NR -20.8000 52.0000 reunion main 333 331 _____O________ -1 -20.8000 52.0000 99 9.90000 10 178
1913021S17052 1913 9 SI MM NOT_NAMED 1913-01-23 09:00:00 NR -21.2694 52.0185 main 332 327 _____P________ -1 -21.2694 52.0185 99 10 177
1913021S17052 1913 9 SI MM NOT_NAMED 1913-01-23 12:00:00 NR -21.7604 52.0538 main 330 330 _____P________ -1 -21.7604 52.0538 99 10 175
1913021S17052 1913 9 SI MM NOT_NAMED 1913-01-23 15:00:00 NR -22.2683 52.1091 main 347 347 _____P________ -1 -22.2683 52.1091 99 10 173
1913021S17052 1913 9 SI MM NOT_NAMED 1913-01-23 18:00:00 NR -22.7886 52.1877 main 360 360 _____P________ -1 -22.7886 52.1877 99 11 171
1913021S17052 1913 9 SI MM NOT_NAMED 1913-01-23 21:00:00 NR -23.3165 52.2927 main 381 381 _____P________ -1 -23.3165 52.2927 99 11 168
1913021S17052 1913 9 SI MM NOT_NAMED 1913-01-24 00:00:00 NR -23.8475 52.4274 main 408 408 _____P________ -1 -23.8475 52.4274 99 11 165
1913021S17052 1913 9 SI MM NOT_NAMED 1913-01-24 03:00:00 NR -24.3769 52.5954 main 443 443 _____P________ -1 -24.3769 52.5954 99 11 162
1913021S17052 1913 9 SI MM NOT_NAMED 1913-01-24 06:00:00 NR -24.9000 52.8000 reunion main 476 476 _____O________ -1 -24.9000 52.8000 99 9.90000 11 159
1913021S17052 1913 9 SI MM NOT_NAMED 1913-01-24 09:00:00 NR -25.4140 53.0329 main 514 514 _____P________ -1 -25.4140 53.0329 99 11 156
1913021S17052 1913 9 SI MM NOT_NAMED 1913-01-24 12:00:00 NR -25.9258 53.3043 main 552 552 _____P________ -1 -25.9258 53.3043 99 11 153
1913021S17052 1913 9 SI MM NOT_NAMED 1913-01-24 15:00:00 NR -26.4328 53.6101 main 594 594 _____P________ -1 -26.4328 53.6101 99 12 150
1913021S17052 1913 9 SI MM NOT_NAMED 1913-01-24 18:00:00 NR -26.9321 53.9460 main 638 638 _____P________ -1 -26.9321 53.9460 99 12 148
1913021S17052 1913 9 SI MM NOT_NAMED 1913-01-24 21:00:00 NR -27.4212 54.3074 main 683 683 _____P________ -1 -27.4212 54.3074 99 12 146
1913021S17052 1913 9 SI MM NOT_NAMED 1913-01-25 00:00:00 NR -27.8973 54.6901 main 731 731 _____P________ -1 -27.8973 54.6901 99 12 144
1913021S17052 1913 9 SI MM NOT_NAMED 1913-01-25 03:00:00 NR -28.3578 55.0892 main 783 783 _____P________ -1 -28.3578 55.0892 99 12 142
1913021S17052 1913 9 SI MM NOT_NAMED 1913-01-25 06:00:00 NR -28.8000 55.5000 reunion main 826 826 _____O________ -1 -28.8000 55.5000 99 9.90000 12 140
1913021S17052 1913 9 SI MM NOT_NAMED 1913-01-25 09:00:00 NR -29.2683 55.9525 main 883 883 _____P________ -1 -29.2683 55.9525 99 12 139
1913021S17052 1913 9 SI MM NOT_NAMED 1913-01-25 12:00:00 NR -29.7237 56.4285 main 930 930 _____P________ -1 -29.7237 56.4285 99 12 137
1913021S17052 1913 9 SI MM NOT_NAMED 1913-01-25 15:00:00 NR -30.1592 56.9147 main 991 991 _____P________ -1 -30.1592 56.9147 99 12 135
1913021S17052 1913 9 SI MM NOT_NAMED 1913-01-25 18:00:00 NR -30.5678 57.3973 main 1043 1043 _____P________ -1 -30.5678 57.3973 99 11 134
1913021S17052 1913 9 SI MM NOT_NAMED 1913-01-25 21:00:00 NR -30.9427 57.8618 main 1085 1085 _____P________ -1 -30.9427 57.8618 99 10 133
1913021S17052 1913 9 SI MM NOT_NAMED 1913-01-26 00:00:00 NR -31.2773 58.2938 main 1137 1137 _____P________ -1 -31.2773 58.2938 99 9 132
1913021S17052 1913 9 SI MM NOT_NAMED 1913-01-26 03:00:00 NR -31.5651 58.6782 main 1180 1180 _____P________ -1 -31.5651 58.6782 99 8 131
1913021S17052 1913 9 SI MM NOT_NAMED 1913-01-26 06:00:00 NR -31.8000 59.0000 reunion main 1209 1209 _____O________ -1 -31.8000 59.0000 99 9.90000 6 130
1913021S17052 1913 9 SI MM NOT_NAMED 1913-01-26 09:00:00 NR -31.9780 59.2480 main 1236 1236 _____P________ -1 -31.9780 59.2480 99 5 130
1913021S17052 1913 9 SI MM NOT_NAMED 1913-01-26 12:00:00 NR -32.1045 59.4273 main 1252 1252 _____P________ -1 -32.1045 59.4273 99 3 130
1913021S17052 1913 9 SI MM NOT_NAMED 1913-01-26 15:00:00 NR -32.1871 59.5473 main 1266 1266 _____P________ -1 -32.1871 59.5473 99 2 128
1913021S17052 1913 9 SI MM NOT_NAMED 1913-01-26 18:00:00 NR -32.2333 59.6176 main 1269 1269 _____P________ -1 -32.2333 59.6176 99 1 124
1913021S17052 1913 9 SI MM NOT_NAMED 1913-01-26 21:00:00 NR -32.2504 59.6481 main 1279 1269 _____P________ -1 -32.2504 59.6481 99 0 0
1913021S17052 1913 9 SI MM NOT_NAMED 1913-01-27 00:00:00 NR -32.2457 59.6487 main 1269 1269 _____P________ -1 -32.2457 59.6487 99 0 0
1913021S17052 1913 9 SI MM NOT_NAMED 1913-01-27 03:00:00 NR -32.2265 59.6293 main 1269 1269 _____P________ -1 -32.2265 59.6293 99 1 325
1913021S17052 1913 9 SI MM NOT_NAMED 1913-01-27 06:00:00 NR -32.2000 59.6000 reunion main 1269 _____O________ -1 -32.2000 59.6000 99 9.90000 1 0

About IBTrACS Database

This database is a web-friendly format of International Best Track Archive for Climate Stewardship (IBTrACS), a global best track data archive curated by NOAA dating back to 1842.

Updated: 2021-12-03